createdAt,value
2017-10-10T00:01:44.948Z,64.20
2017-10-10T00:04:14.031Z,64.50
2017-10-10T00:06:42.831Z,64.50
2017-10-10T00:09:11.088Z,64.30
2017-10-10T00:11:39.367Z,64.40
2017-10-10T00:14:07.698Z,64.60
2017-10-10T00:16:35.940Z,64.40
2017-10-10T00:19:04.197Z,64.50
2017-10-10T00:21:33.958Z,64.50
2017-10-10T00:24:04.325Z,65.00
2017-10-10T00:26:33.321Z,64.40
2017-10-10T00:29:02.041Z,64.50
2017-10-10T00:31:32.072Z,64.30
2017-10-10T00:34:00.911Z,64.60
2017-10-10T00:36:33.064Z,64.30
2017-10-10T00:39:03.177Z,64.20
2017-10-10T00:41:32.132Z,64.30
2017-10-10T00:44:02.341Z,64.20
2017-10-10T00:46:34.469Z,64.50
2017-10-10T00:49:03.806Z,64.00
2017-10-10T00:51:32.071Z,64.20
2017-10-10T00:54:00.359Z,63.70
2017-10-10T00:56:28.825Z,63.90
2017-10-10T00:58:57.102Z,64.10
2017-10-10T01:01:25.376Z,64.00
2017-10-10T01:03:53.720Z,64.10
2017-10-10T01:06:23.723Z,63.90
2017-10-10T01:08:53.005Z,63.90
2017-10-10T01:11:21.279Z,63.80
2017-10-10T01:13:49.551Z,63.70
2017-10-10T01:16:17.868Z,63.70
2017-10-10T01:18:46.161Z,64.10
2017-10-10T01:21:15.392Z,64.10
2017-10-10T01:23:43.802Z,64.00
2017-10-10T01:26:12.867Z,64.30
2017-10-10T01:28:41.169Z,64.10
2017-10-10T01:31:09.455Z,63.90
2017-10-10T01:33:37.776Z,63.70
2017-10-10T01:36:06.023Z,63.80
2017-10-10T01:38:34.334Z,63.50
2017-10-10T01:41:02.643Z,63.50
2017-10-10T01:43:30.943Z,63.40
2017-10-10T01:45:59.998Z,63.70
2017-10-10T01:48:28.335Z,63.50
2017-10-10T01:50:58.227Z,63.60
2017-10-10T01:53:28.131Z,63.40
2017-10-10T01:55:56.441Z,63.30
2017-10-10T01:58:24.700Z,63.30
2017-10-10T02:00:53.855Z,63.30
2017-10-10T02:03:23.661Z,63.90
2017-10-10T02:05:52.810Z,63.20
2017-10-10T02:08:21.869Z,63.20
2017-10-10T02:10:50.615Z,63.20
2017-10-10T02:13:18.892Z,63.10
2017-10-10T02:15:47.208Z,63.30
2017-10-10T02:18:16.479Z,63.50
2017-10-10T02:20:44.741Z,63.30
2017-10-10T02:23:13.011Z,63.70
2017-10-10T02:25:41.424Z,63.60
2017-10-10T02:28:09.684Z,63.60
2017-10-10T02:30:37.957Z,63.70
2017-10-10T02:33:06.911Z,63.60
2017-10-10T02:35:35.159Z,63.90
2017-10-10T02:38:04.252Z,63.50
2017-10-10T02:40:32.515Z,63.50
2017-10-10T02:43:00.782Z,63.00
2017-10-10T02:45:29.047Z,63.20
2017-10-10T02:47:57.373Z,63.10
2017-10-10T02:50:25.615Z,63.00
2017-10-10T02:52:53.900Z,63.10
2017-10-10T02:55:22.195Z,63.20
2017-10-10T02:57:50.485Z,63.10
2017-10-10T03:00:20.259Z,63.50
2017-10-10T03:02:48.558Z,63.40
2017-10-10T03:05:16.841Z,63.40
2017-10-10T03:07:46.607Z,63.40
2017-10-10T03:10:14.892Z,63.30
2017-10-10T03:12:43.196Z,63.50
2017-10-10T03:15:11.480Z,63.50
2017-10-10T03:17:39.735Z,63.80
2017-10-10T03:20:08.024Z,63.90
2017-10-10T03:22:38.655Z,64.00
2017-10-10T03:25:07.061Z,63.70
2017-10-10T03:27:36.159Z,63.90
2017-10-10T03:30:04.428Z,63.70
2017-10-10T03:32:32.718Z,63.80
2017-10-10T03:35:00.961Z,63.50
2017-10-10T03:37:29.227Z,63.60
2017-10-10T03:39:58.200Z,63.50
2017-10-10T03:42:26.479Z,63.60
2017-10-10T03:44:54.763Z,63.60
2017-10-10T03:47:23.949Z,63.40
2017-10-10T03:49:52.233Z,63.60
2017-10-10T03:52:20.489Z,64.00
2017-10-10T03:54:48.773Z,64.10
2017-10-10T03:57:17.036Z,64.10
2017-10-10T03:59:46.104Z,63.70
2017-10-10T04:02:14.987Z,63.60
2017-10-10T04:04:43.265Z,64.00
2017-10-10T04:07:11.570Z,63.80
2017-10-10T04:09:39.823Z,64.00
2017-10-10T04:12:09.627Z,64.10
2017-10-10T04:14:37.938Z,63.80
2017-10-10T04:17:06.993Z,64.10
2017-10-10T04:19:35.236Z,64.30
2017-10-10T04:22:03.650Z,63.90
2017-10-10T04:24:31.883Z,64.10
2017-10-10T04:27:00.227Z,63.80
2017-10-10T04:29:28.478Z,64.30
2017-10-10T04:31:56.763Z,64.20
2017-10-10T04:34:26.524Z,64.40
2017-10-10T04:36:54.830Z,64.40
2017-10-10T04:39:23.952Z,64.10
2017-10-10T04:41:52.200Z,64.20
2017-10-10T04:44:20.496Z,64.20
2017-10-10T04:46:50.640Z,64.40
2017-10-10T04:49:19.692Z,64.50
2017-10-10T04:51:47.951Z,64.80
2017-10-10T04:54:16.234Z,64.20
2017-10-10T04:56:44.493Z,64.60
2017-10-10T04:59:12.798Z,64.50
2017-10-10T05:01:41.716Z,64.60
2017-10-10T05:04:09.944Z,64.50
2017-10-10T05:06:39.287Z,65.10
2017-10-10T05:09:07.553Z,64.80
2017-10-10T05:11:35.809Z,64.70
2017-10-10T05:17:04.062Z,65.10
2017-10-10T05:19:33.079Z,65.70
2017-10-10T05:22:02.319Z,65.60
2017-10-10T05:24:31.942Z,65.40
2017-10-10T05:27:00.255Z,65.60
2017-10-10T05:29:28.572Z,65.60
2017-10-10T05:31:57.656Z,65.60
2017-10-10T05:34:25.952Z,65.70
2017-10-10T05:36:55.011Z,65.80
2017-10-10T05:39:23.325Z,65.70
2017-10-10T05:41:53.609Z,65.50
2017-10-10T05:44:21.937Z,65.60
2017-10-10T05:46:50.200Z,66.10
2017-10-10T05:49:19.438Z,66.30
2017-10-10T05:51:48.534Z,66.00
2017-10-10T05:54:16.787Z,66.00
2017-10-10T05:56:45.812Z,66.20
2017-10-10T05:59:14.091Z,66.10
2017-10-10T06:01:42.354Z,65.90
2017-10-10T06:04:11.380Z,65.80
2017-10-10T06:06:39.664Z,65.90
2017-10-10T06:09:07.926Z,65.80
2017-10-10T06:11:36.219Z,65.90
2017-10-10T06:14:04.491Z,66.10
2017-10-10T06:16:34.284Z,66.50
2017-10-10T06:19:02.578Z,66.40
2017-10-10T06:21:30.853Z,66.60
2017-10-10T06:23:59.107Z,66.60
2017-10-10T06:26:27.388Z,66.80
2017-10-10T06:28:56.464Z,66.90
2017-10-10T06:31:24.760Z,66.70
2017-10-10T06:33:53.015Z,67.20
2017-10-10T06:36:22.061Z,66.60
2017-10-10T06:38:51.289Z,66.60
2017-10-10T06:41:19.562Z,66.70
2017-10-10T06:43:47.844Z,67.10
2017-10-10T06:46:16.115Z,67.10
2017-10-10T06:48:44.526Z,67.10
2017-10-10T06:51:12.930Z,66.90
2017-10-10T06:53:42.115Z,67.20
2017-10-10T06:56:20.253Z,67.10
2017-10-10T06:58:48.524Z,67.10
2017-10-10T07:01:16.893Z,67.00
2017-10-10T07:03:45.186Z,66.80
2017-10-10T07:06:13.505Z,67.10
2017-10-10T07:08:42.763Z,66.90
2017-10-10T07:11:11.025Z,67.20
2017-10-10T07:13:39.307Z,67.40
2017-10-10T07:16:07.598Z,67.20
2017-10-10T07:18:35.850Z,67.50
2017-10-10T07:21:04.125Z,67.40
2017-10-10T07:23:32.409Z,67.50
2017-10-10T07:26:00.679Z,67.30
2017-10-10T07:28:29.793Z,67.70
2017-10-10T07:30:59.047Z,67.60
2017-10-10T07:33:27.323Z,67.80
2017-10-10T07:35:55.616Z,67.90
2017-10-10T07:38:23.912Z,67.70
2017-10-10T07:40:52.187Z,67.90
2017-10-10T07:43:20.472Z,68.10
2017-10-10T07:45:48.736Z,68.00
2017-10-10T07:48:17.513Z,68.10
2017-10-10T07:50:45.778Z,68.00
2017-10-10T07:53:14.838Z,68.20
2017-10-10T07:55:43.140Z,68.10
2017-10-10T07:58:11.383Z,68.20
2017-10-10T08:00:39.727Z,68.20
2017-10-10T08:03:07.989Z,68.30
2017-10-10T08:05:37.010Z,68.30
2017-10-10T08:08:05.284Z,68.30
2017-10-10T08:16:35.889Z,68.00
2017-10-10T08:19:04.160Z,67.80
2017-10-10T08:21:32.443Z,68.00
2017-10-10T08:24:00.706Z,67.80
2017-10-10T08:26:28.963Z,68.00
2017-10-10T08:28:57.216Z,68.10
2017-10-10T08:31:25.508Z,67.90
2017-10-10T08:33:53.766Z,67.90
2017-10-10T08:36:22.796Z,67.90
2017-10-10T08:38:51.075Z,68.10
2017-10-10T08:41:19.335Z,68.00
2017-10-10T08:43:47.608Z,68.60
2017-10-10T08:46:15.863Z,67.60
2017-10-10T08:48:44.991Z,67.40
2017-10-10T08:51:14.220Z,67.60
2017-10-10T08:53:43.452Z,67.60
2017-10-10T08:56:12.690Z,67.60
2017-10-10T08:58:40.947Z,68.30
2017-10-10T09:01:09.232Z,67.70
2017-10-10T09:03:37.518Z,67.80
2017-10-10T09:06:05.781Z,67.50
2017-10-10T09:08:34.787Z,67.40
2017-10-10T09:11:03.067Z,67.40
2017-10-10T09:13:33.008Z,67.00
2017-10-10T09:16:01.316Z,67.40
2017-10-10T09:18:29.570Z,67.30
2017-10-10T09:20:58.696Z,67.50
2017-10-10T09:23:28.670Z,67.40
2017-10-10T09:25:56.969Z,67.20
2017-10-10T09:28:25.238Z,66.90
2017-10-10T09:30:55.328Z,66.80
2017-10-10T09:33:23.599Z,66.50
2017-10-10T09:35:51.870Z,66.30
2017-10-10T09:38:22.098Z,66.30
2017-10-10T09:40:50.392Z,66.20
2017-10-10T09:43:19.564Z,66.30
2017-10-10T09:45:47.850Z,66.10
2017-10-10T09:48:16.184Z,66.20
2017-10-10T09:50:46.825Z,65.70
2017-10-10T09:53:15.115Z,65.30
2017-10-10T09:55:43.403Z,65.40
2017-10-10T09:58:13.065Z,65.20
2017-10-10T10:00:41.328Z,65.00
2017-10-10T10:03:09.824Z,65.00
2017-10-10T10:05:38.155Z,65.30
2017-10-10T10:08:06.487Z,65.20
2017-10-10T10:10:35.671Z,65.10
2017-10-10T10:13:04.760Z,64.80
2017-10-10T10:15:33.082Z,64.70
2017-10-10T10:18:01.445Z,64.40
2017-10-10T10:20:30.814Z,64.00
2017-10-10T10:22:59.120Z,64.10
2017-10-10T10:25:27.397Z,63.80
2017-10-10T10:27:55.888Z,64.00
2017-10-10T10:30:24.213Z,64.10
2017-10-10T10:32:53.263Z,64.70
2017-10-10T10:35:22.344Z,63.60
2017-10-10T10:37:51.372Z,63.70
2017-10-10T10:40:19.663Z,63.80
2017-10-10T10:42:48.078Z,63.80
2017-10-10T10:45:16.336Z,63.20
2017-10-10T10:47:44.642Z,62.80
2017-10-10T10:50:12.907Z,62.40
2017-10-10T10:52:42.887Z,62.80
2017-10-10T10:55:11.171Z,62.60
2017-10-10T10:57:39.538Z,62.60
2017-10-10T11:00:07.939Z,62.50
2017-10-10T11:02:38.022Z,62.50
2017-10-10T11:05:07.062Z,62.50
2017-10-10T11:07:35.376Z,62.60
2017-10-10T11:10:03.693Z,62.30
2017-10-10T11:12:33.620Z,62.60
2017-10-10T11:15:01.929Z,62.70
2017-10-10T11:17:30.969Z,63.00
2017-10-10T11:19:59.308Z,62.60
2017-10-10T11:22:28.378Z,62.40
2017-10-10T11:24:57.657Z,62.50
2017-10-10T11:27:26.809Z,62.50
2017-10-10T11:29:55.133Z,62.90
2017-10-10T11:32:23.486Z,62.90
2017-10-10T11:34:52.776Z,63.30
2017-10-10T11:37:21.084Z,62.40
2017-10-10T11:39:49.395Z,62.60
2017-10-10T11:42:18.426Z,62.70
2017-10-10T11:44:46.865Z,62.90
2017-10-10T11:47:16.057Z,62.70
2017-10-10T11:49:45.272Z,62.50
2017-10-10T11:52:13.602Z,61.90
2017-10-10T11:54:42.212Z,62.10
2017-10-10T11:57:10.544Z,62.20
2017-10-10T11:59:38.857Z,62.10
2017-10-10T12:02:07.149Z,61.90
2017-10-10T12:04:35.421Z,61.50
2017-10-10T12:07:07.696Z,61.80
2017-10-10T12:09:35.971Z,61.20
2017-10-10T12:12:05.032Z,61.40
2017-10-10T12:14:33.313Z,61.30
2017-10-10T12:17:01.620Z,61.40
2017-10-10T12:19:30.688Z,61.00
2017-10-10T12:21:59.002Z,61.10
2017-10-10T12:24:28.087Z,61.40
2017-10-10T12:26:56.335Z,61.20
2017-10-10T12:29:24.669Z,61.20
2017-10-10T12:31:52.990Z,61.10
2017-10-10T12:34:21.277Z,60.80
2017-10-10T12:36:49.616Z,60.60
2017-10-10T12:39:17.915Z,60.80
2017-10-10T12:41:46.970Z,60.50
2017-10-10T12:44:15.379Z,60.60
2017-10-10T12:46:44.680Z,60.60
2017-10-10T12:49:13.973Z,60.80
2017-10-10T12:51:42.270Z,60.70
2017-10-10T12:54:11.479Z,60.50
2017-10-10T12:56:40.641Z,61.00
2017-10-10T12:59:09.125Z,61.20
2017-10-10T13:01:37.544Z,60.50
2017-10-10T13:04:06.800Z,60.20
2017-10-10T13:06:35.227Z,60.50
2017-10-10T13:09:03.605Z,60.70
2017-10-10T13:11:33.674Z,60.70
2017-10-10T13:14:02.037Z,60.60
2017-10-10T13:16:30.467Z,60.90
2017-10-10T13:18:58.948Z,61.10
2017-10-10T13:21:28.942Z,61.20
2017-10-10T13:23:57.349Z,61.10
2017-10-10T13:26:27.256Z,61.20
2017-10-10T13:28:55.671Z,61.00
2017-10-10T13:31:24.246Z,61.20
2017-10-10T13:33:54.371Z,61.20
2017-10-10T13:36:24.477Z,61.60
2017-10-10T13:38:53.734Z,61.10
2017-10-10T13:41:22.148Z,61.20
2017-10-10T13:43:50.465Z,61.20
2017-10-10T13:46:18.841Z,61.30
2017-10-10T13:48:47.129Z,61.10
2017-10-10T13:51:15.433Z,60.70
2017-10-10T13:53:43.781Z,60.80
2017-10-10T13:56:12.807Z,60.80
2017-10-10T13:58:42.040Z,60.80
2017-10-10T14:01:10.336Z,60.60
2017-10-10T14:03:38.646Z,60.50
2017-10-10T14:06:07.085Z,60.70
2017-10-10T14:08:35.372Z,60.40
2017-10-10T14:11:03.693Z,60.00
2017-10-10T14:13:34.112Z,60.20
2017-10-10T14:16:02.403Z,59.70
2017-10-10T14:18:31.681Z,59.40
2017-10-10T14:20:59.981Z,60.10
2017-10-10T14:23:29.038Z,59.90
2017-10-10T14:25:59.047Z,60.20
2017-10-10T14:28:27.438Z,60.00
2017-10-10T14:30:55.725Z,60.40
2017-10-10T14:33:24.056Z,60.50
2017-10-10T14:35:55.274Z,60.60
2017-10-10T14:38:24.484Z,60.40
2017-10-10T14:40:52.795Z,60.70
2017-10-10T14:43:21.056Z,60.30
2017-10-10T14:45:49.986Z,60.50
2017-10-10T14:48:19.270Z,60.50
2017-10-10T14:50:47.589Z,60.20
2017-10-10T14:53:16.779Z,60.70
2017-10-10T14:55:45.835Z,61.40
2017-10-10T14:58:14.137Z,61.50
2017-10-10T15:00:42.474Z,61.00
2017-10-10T15:03:11.716Z,61.00
2017-10-10T15:05:39.999Z,61.40
2017-10-10T15:08:08.371Z,61.80
2017-10-10T15:10:37.744Z,61.80
2017-10-10T15:13:07.814Z,62.10
2017-10-10T15:15:37.441Z,62.70
2017-10-10T15:18:05.744Z,62.90
2017-10-10T15:20:34.049Z,62.80
2017-10-10T15:23:03.401Z,62.90
2017-10-10T15:25:32.756Z,62.70
2017-10-10T15:28:01.839Z,62.90
2017-10-10T15:30:31.413Z,62.60
2017-10-10T15:32:59.744Z,62.40
2017-10-10T15:35:28.860Z,62.70
2017-10-10T15:37:58.735Z,62.80
2017-10-10T15:40:27.080Z,62.60
2017-10-10T15:42:55.431Z,62.60
2017-10-10T15:45:24.535Z,62.90
2017-10-10T15:47:52.856Z,63.00
2017-10-10T15:50:21.988Z,62.80
2017-10-10T15:52:51.061Z,62.90
2017-10-10T15:55:19.393Z,62.90
2017-10-10T15:57:47.709Z,63.00
2017-10-10T16:00:16.002Z,63.00
2017-10-10T16:02:44.473Z,62.80
2017-10-10T16:05:12.817Z,63.10
2017-10-10T16:07:42.179Z,63.00
2017-10-10T16:10:11.266Z,62.70
2017-10-10T16:12:40.445Z,63.00
2017-10-10T16:15:08.786Z,63.00
2017-10-10T16:17:46.275Z,63.40
2017-10-10T16:20:15.064Z,62.60
2017-10-10T16:22:43.402Z,63.50
2017-10-10T16:25:11.698Z,63.60
2017-10-10T16:27:40.064Z,63.90
2017-10-10T16:30:08.415Z,63.50
2017-10-10T16:32:37.507Z,63.30
2017-10-10T16:35:05.805Z,63.20
2017-10-10T16:37:34.982Z,63.10
2017-10-10T16:40:03.846Z,62.90
2017-10-10T16:42:32.713Z,62.80
2017-10-10T16:45:01.868Z,62.70
2017-10-10T16:47:30.139Z,63.00
2017-10-10T16:49:58.731Z,63.60
2017-10-10T16:52:27.034Z,63.40
2017-10-10T16:54:56.062Z,63.70
2017-10-10T16:57:25.416Z,63.70
2017-10-10T16:59:53.745Z,63.70
2017-10-10T17:02:23.696Z,63.60
2017-10-10T17:04:52.964Z,63.70
2017-10-10T17:07:22.200Z,63.50
2017-10-10T17:09:50.490Z,63.50
2017-10-10T17:12:19.557Z,63.30
2017-10-10T17:14:48.665Z,63.20
2017-10-10T17:17:16.967Z,63.30
2017-10-10T17:19:46.104Z,63.70
2017-10-10T17:22:16.207Z,63.60
2017-10-10T17:24:44.559Z,63.50
2017-10-10T17:27:12.844Z,63.60
2017-10-10T17:29:41.179Z,63.50
2017-10-10T17:32:09.510Z,63.60
2017-10-10T17:34:37.786Z,63.90
2017-10-10T17:37:07.159Z,64.20
2017-10-10T17:39:36.332Z,63.80
2017-10-10T17:42:04.812Z,64.20
2017-10-10T17:44:34.150Z,64.00
2017-10-10T17:47:03.481Z,63.70
2017-10-10T17:49:32.109Z,64.00
2017-10-10T17:52:02.138Z,64.30
2017-10-10T17:54:31.289Z,64.00
2017-10-10T17:56:59.700Z,63.90
2017-10-10T17:59:28.876Z,64.10
2017-10-10T18:01:57.214Z,64.00
2017-10-10T18:04:25.536Z,64.00
2017-10-10T18:06:55.994Z,63.70
2017-10-10T18:09:27.838Z,63.90
2017-10-10T18:11:56.699Z,63.90
2017-10-10T18:14:26.149Z,63.90
2017-10-10T18:16:54.547Z,64.10
2017-10-10T18:19:23.098Z,63.70
2017-10-10T18:21:51.997Z,63.90
2017-10-10T18:24:20.670Z,64.20
2017-10-10T18:26:50.694Z,63.90
2017-10-10T18:29:19.891Z,64.30
2017-10-10T18:31:48.988Z,64.10
2017-10-10T18:34:17.461Z,64.10
2017-10-10T18:36:48.920Z,64.10
2017-10-10T18:39:17.268Z,64.20
2017-10-10T18:41:49.675Z,64.00
2017-10-10T18:44:19.556Z,63.80
2017-10-10T18:46:48.725Z,63.70
2017-10-10T18:49:19.631Z,63.70
2017-10-10T18:51:53.013Z,63.80
2017-10-10T18:54:23.073Z,64.00
2017-10-10T18:56:54.372Z,64.20
2017-10-10T18:59:24.832Z,64.20
2017-10-10T19:01:55.952Z,64.00
2017-10-10T19:04:24.439Z,64.00
2017-10-10T19:06:54.434Z,64.40
2017-10-10T19:09:23.714Z,64.30
2017-10-10T19:11:52.721Z,64.10
2017-10-10T19:14:21.204Z,64.10
2017-10-10T19:16:49.628Z,64.00
2017-10-10T19:19:20.816Z,64.00
2017-10-10T19:21:49.326Z,64.00
2017-10-10T19:24:17.718Z,64.20
2017-10-10T19:26:47.639Z,64.30
2017-10-10T19:29:16.792Z,64.50
2017-10-10T19:31:46.320Z,64.50
2017-10-10T19:34:15.213Z,64.30
2017-10-10T19:36:47.453Z,64.50
2017-10-10T19:39:16.098Z,64.60
2017-10-10T19:41:44.665Z,64.50
2017-10-10T19:44:13.976Z,64.30
2017-10-10T19:46:44.907Z,64.30
2017-10-10T19:49:14.311Z,64.50
2017-10-10T19:51:43.225Z,64.00
2017-10-10T19:54:13.117Z,64.30
2017-10-10T19:56:44.382Z,64.40
2017-10-10T19:59:14.031Z,64.20
2017-10-10T20:01:43.236Z,64.30
2017-10-10T20:04:11.998Z,64.20
2017-10-10T20:06:45.959Z,64.00
2017-10-10T20:09:14.526Z,63.80
2017-10-10T20:11:44.797Z,63.70
2017-10-10T20:14:15.870Z,63.50
2017-10-10T20:16:45.714Z,63.70
2017-10-10T20:19:16.514Z,63.50
2017-10-10T20:21:50.437Z,63.50
2017-10-10T20:24:20.107Z,63.50
2017-10-10T20:26:49.700Z,63.30
2017-10-10T20:29:18.892Z,63.60
2017-10-10T20:31:48.198Z,63.60
2017-10-10T20:40:20.205Z,64.00
2017-10-10T20:45:49.938Z,63.80
2017-10-10T20:48:19.292Z,64.00
2017-10-10T20:50:47.700Z,64.30
2017-10-10T20:53:17.648Z,64.00
2017-10-10T20:55:48.088Z,64.10
2017-10-10T20:58:17.177Z,64.20
2017-10-10T21:00:45.578Z,64.20
2017-10-10T21:03:18.497Z,64.00
2017-10-10T21:05:48.800Z,64.20
2017-10-10T21:08:17.114Z,63.60
2017-10-10T21:10:46.131Z,63.70
2017-10-10T21:13:15.187Z,63.50
2017-10-10T21:15:43.488Z,63.80
2017-10-10T21:18:11.809Z,63.70
2017-10-10T21:20:40.977Z,64.10
2017-10-10T21:23:09.275Z,63.80
2017-10-10T21:25:37.589Z,63.80
2017-10-10T21:28:05.859Z,64.30
2017-10-10T21:30:35.124Z,63.90
2017-10-10T21:36:03.758Z,63.70
2017-10-10T21:38:32.090Z,63.60
2017-10-10T21:41:02.717Z,63.40
2017-10-10T21:43:31.077Z,63.50
2017-10-10T21:46:00.375Z,63.50
2017-10-10T21:48:28.661Z,63.60
2017-10-10T21:50:56.974Z,63.60
2017-10-10T21:53:26.103Z,63.30
2017-10-10T21:55:55.990Z,63.30
2017-10-10T21:58:25.153Z,63.50
2017-10-10T22:00:53.459Z,63.70
2017-10-10T22:03:22.524Z,63.50
2017-10-10T22:05:50.836Z,63.40
2017-10-10T22:08:19.912Z,63.10
2017-10-10T22:10:49.075Z,63.00
2017-10-10T22:13:18.359Z,63.20
2017-10-10T22:15:46.653Z,62.60
2017-10-10T22:18:14.999Z,62.50
2017-10-10T22:20:43.368Z,62.60
2017-10-10T22:23:13.986Z,63.20
2017-10-10T22:25:44.014Z,63.50
2017-10-10T22:28:12.311Z,63.20
2017-10-10T22:30:41.515Z,63.40
2017-10-10T22:35:45.120Z,63.60
2017-10-10T22:38:13.922Z,63.50
2017-10-10T22:40:42.320Z,63.30
2017-10-10T22:43:11.601Z,63.60
2017-10-10T22:45:39.985Z,63.70
2017-10-10T22:48:09.245Z,63.70
2017-10-10T22:50:37.545Z,63.20
2017-10-10T22:53:06.632Z,63.10
2017-10-10T22:55:35.665Z,63.10
2017-10-10T22:58:04.918Z,63.00
2017-10-10T23:00:34.874Z,62.80
2017-10-10T23:03:04.253Z,62.60
2017-10-10T23:05:32.529Z,62.50
2017-10-10T23:08:01.563Z,62.20
2017-10-10T23:10:29.974Z,62.50
2017-10-10T23:12:58.318Z,62.50
2017-10-10T23:15:26.784Z,62.50
2017-10-10T23:17:55.097Z,62.30
2017-10-10T23:20:23.423Z,62.60
2017-10-10T23:22:51.724Z,63.50
2017-10-10T23:25:20.000Z,62.90
2017-10-10T23:27:48.523Z,62.50
2017-10-10T23:30:16.753Z,62.20
2017-10-10T23:32:45.096Z,62.50
2017-10-10T23:35:14.147Z,62.40
2017-10-10T23:37:42.448Z,62.40
2017-10-10T23:40:10.891Z,62.50
2017-10-10T23:42:39.178Z,62.60
2017-10-10T23:45:08.274Z,62.40
2017-10-10T23:47:36.594Z,62.20
2017-10-10T23:50:04.874Z,62.10
2017-10-10T23:52:33.952Z,62.40
2017-10-10T23:55:03.147Z,62.50
2017-10-10T23:57:31.394Z,62.40
2017-10-10T23:59:59.889Z,62.40
